createdAt,value
2018-03-21T00:00:27.475Z,807.50
2018-03-21T00:01:27.478Z,807.47
2018-03-21T00:02:27.477Z,807.50
2018-03-21T00:03:27.477Z,807.50
2018-03-21T00:04:27.473Z,807.54
2018-03-21T00:05:27.470Z,807.57
2018-03-21T00:06:27.477Z,807.53
2018-03-21T00:07:27.468Z,807.52
2018-03-21T00:08:27.471Z,807.56
2018-03-21T00:09:27.467Z,807.54
2018-03-21T00:10:27.466Z,807.60
2018-03-21T00:11:27.475Z,807.59
2018-03-21T00:12:27.469Z,807.57
2018-03-21T00:13:27.462Z,807.58
2018-03-21T00:14:27.461Z,807.61
2018-03-21T00:15:27.468Z,807.61
2018-03-21T00:16:27.466Z,807.61
2018-03-21T00:17:27.462Z,807.63
2018-03-21T00:18:27.463Z,807.65
2018-03-21T00:19:27.461Z,807.62
2018-03-21T00:20:27.456Z,807.60
2018-03-21T00:21:27.457Z,807.63
2018-03-21T00:22:27.460Z,807.63
2018-03-21T00:23:27.455Z,807.63
2018-03-21T00:24:27.453Z,807.63
2018-03-21T00:25:27.456Z,807.61
2018-03-21T00:26:27.456Z,807.65
2018-03-21T00:27:27.450Z,807.67
2018-03-21T00:28:27.454Z,807.69
2018-03-21T00:29:27.447Z,807.69
2018-03-21T00:30:27.448Z,807.66
2018-03-21T00:31:27.456Z,807.71
2018-03-21T00:32:27.463Z,807.71
2018-03-21T00:33:27.444Z,807.74
2018-03-21T00:34:27.445Z,807.71
2018-03-21T00:35:27.447Z,807.72
2018-03-21T00:36:27.444Z,807.73
2018-03-21T00:37:27.449Z,807.71
2018-03-21T00:38:27.444Z,807.71
2018-03-21T00:39:27.442Z,807.70
2018-03-21T00:40:27.437Z,807.70
2018-03-21T00:41:27.441Z,807.68
2018-03-21T00:42:27.441Z,807.69
2018-03-21T00:43:27.438Z,807.70
2018-03-21T00:44:27.439Z,807.72
2018-03-21T00:45:27.437Z,807.72
2018-03-21T00:46:27.432Z,807.68
2018-03-21T00:47:27.435Z,807.70
2018-03-21T00:48:27.435Z,807.63
2018-03-21T00:49:27.428Z,807.64
2018-03-21T00:50:27.431Z,807.64
2018-03-21T00:51:27.425Z,807.59
2018-03-21T00:52:27.430Z,807.59
2018-03-21T00:53:27.424Z,807.55
2018-03-21T00:54:27.421Z,807.58
2018-03-21T00:55:27.422Z,807.63
2018-03-21T00:56:27.422Z,807.62
2018-03-21T00:57:27.428Z,807.65
2018-03-21T00:58:27.421Z,807.66
2018-03-21T00:59:27.423Z,807.66
2018-03-21T01:00:27.415Z,807.65
2018-03-21T01:01:27.425Z,807.67
2018-03-21T01:02:27.413Z,807.66
2018-03-21T01:03:27.412Z,807.71
2018-03-21T01:04:27.410Z,807.68
2018-03-21T01:05:27.409Z,807.69
2018-03-21T01:06:27.413Z,807.68
2018-03-21T01:07:27.407Z,807.73
2018-03-21T01:08:27.405Z,807.71
2018-03-21T01:09:27.403Z,807.72
2018-03-21T01:10:27.407Z,807.75
2018-03-21T01:11:27.403Z,807.78
2018-03-21T01:12:27.405Z,807.74
2018-03-21T01:13:27.399Z,807.77
2018-03-21T01:14:27.403Z,807.78
2018-03-21T01:15:27.402Z,807.76
2018-03-21T01:16:27.399Z,807.72
2018-03-21T01:17:27.392Z,807.68
2018-03-21T01:18:27.392Z,807.63
2018-03-21T01:19:27.389Z,807.63
2018-03-21T01:20:27.394Z,807.61
2018-03-21T01:21:27.389Z,807.65
2018-03-21T01:22:27.384Z,807.68
2018-03-21T01:23:27.386Z,807.65
2018-03-21T01:24:27.388Z,807.67
2018-03-21T01:25:27.380Z,807.65
2018-03-21T01:26:27.381Z,807.67
2018-03-21T01:27:27.380Z,807.67
2018-03-21T01:28:27.381Z,807.68
2018-03-21T01:29:27.373Z,807.68
2018-03-21T01:30:27.373Z,807.67
2018-03-21T01:31:27.373Z,807.67
2018-03-21T01:32:27.376Z,807.69
2018-03-21T01:33:27.368Z,807.67
2018-03-21T01:34:27.373Z,807.69
2018-03-21T01:35:27.377Z,807.70
2018-03-21T01:36:27.365Z,807.67
2018-03-21T01:37:27.362Z,807.67
2018-03-21T01:38:27.359Z,807.62
2018-03-21T01:39:27.358Z,807.66
2018-03-21T01:40:27.355Z,807.67
2018-03-21T01:41:27.355Z,807.67
2018-03-21T01:42:27.361Z,807.69
2018-03-21T01:43:27.357Z,807.71
2018-03-21T01:44:27.364Z,807.69
2018-03-21T01:45:27.355Z,807.66
2018-03-21T01:46:27.354Z,807.69
2018-03-21T01:47:27.350Z,807.68
2018-03-21T01:48:27.349Z,807.76
2018-03-21T01:49:27.341Z,807.71
2018-03-21T01:50:27.348Z,807.71
2018-03-21T01:51:27.346Z,807.71
2018-03-21T01:52:27.337Z,807.70
2018-03-21T01:53:27.345Z,807.66
2018-03-21T01:54:27.337Z,807.70
2018-03-21T01:55:27.338Z,807.71
2018-03-21T01:56:27.337Z,807.65
2018-03-21T01:57:27.329Z,807.70
2018-03-21T01:58:27.329Z,807.71
2018-03-21T01:59:27.332Z,807.73
2018-03-21T02:00:27.330Z,807.73
2018-03-21T02:01:27.330Z,807.66
2018-03-21T02:02:27.328Z,807.72
2018-03-21T02:03:27.322Z,807.71
2018-03-21T02:04:27.326Z,807.75
2018-03-21T02:05:27.319Z,807.75
2018-03-21T02:06:27.316Z,807.75
2018-03-21T02:07:27.320Z,807.72
2018-03-21T02:08:27.315Z,807.76
2018-03-21T02:09:27.317Z,807.74
2018-03-21T02:10:27.313Z,807.77
2018-03-21T02:11:27.316Z,807.76
2018-03-21T02:12:27.317Z,807.69
2018-03-21T02:13:27.306Z,807.71
2018-03-21T02:14:27.354Z,807.71
2018-03-21T02:15:27.308Z,807.71
2018-03-21T02:16:27.308Z,807.72
2018-03-21T02:17:27.307Z,807.72
2018-03-21T02:18:27.303Z,807.76
2018-03-21T02:19:27.304Z,807.76
2018-03-21T02:20:27.296Z,807.77
2018-03-21T02:21:27.300Z,807.78
2018-03-21T02:22:27.299Z,807.80
2018-03-21T02:23:27.297Z,807.78
2018-03-21T02:24:27.291Z,807.80
2018-03-21T02:25:27.294Z,807.79
2018-03-21T02:26:27.294Z,807.78
2018-03-21T02:27:27.290Z,807.80
2018-03-21T02:28:27.290Z,807.80
2018-03-21T02:29:27.288Z,807.80
2018-03-21T02:30:27.284Z,807.77
2018-03-21T02:31:27.280Z,807.81
2018-03-21T02:32:27.287Z,807.77
2018-03-21T02:33:27.284Z,807.77
2018-03-21T02:34:27.285Z,807.78
2018-03-21T02:35:27.283Z,807.79
2018-03-21T02:36:27.273Z,807.84
2018-03-21T02:37:27.275Z,807.83
2018-03-21T02:38:27.276Z,807.82
2018-03-21T02:39:27.269Z,807.79
2018-03-21T02:40:27.270Z,807.76
2018-03-21T02:41:27.271Z,807.75
2018-03-21T02:42:27.269Z,807.75
2018-03-21T02:43:27.267Z,807.80
2018-03-21T02:44:27.261Z,807.76
2018-03-21T02:45:27.262Z,807.77
2018-03-21T02:46:27.259Z,807.81
2018-03-21T02:47:27.258Z,807.83
2018-03-21T02:48:27.256Z,807.84
2018-03-21T02:49:27.262Z,807.82
2018-03-21T02:50:27.258Z,807.80
2018-03-21T02:51:27.250Z,807.85
2018-03-21T02:52:27.251Z,807.81
2018-03-21T02:53:27.248Z,807.85
2018-03-21T02:54:27.253Z,807.80
2018-03-21T02:55:27.254Z,807.82
2018-03-21T02:56:27.249Z,807.83
2018-03-21T02:57:27.248Z,807.84
2018-03-21T02:58:27.246Z,807.82
2018-03-21T02:59:27.242Z,807.88
2018-03-21T03:00:27.236Z,807.87
2018-03-21T03:01:27.240Z,807.88
2018-03-21T03:02:27.238Z,807.86
2018-03-21T03:03:27.232Z,807.86
2018-03-21T03:04:27.236Z,807.90
2018-03-21T03:05:27.228Z,807.87
2018-03-21T03:06:27.231Z,807.86
2018-03-21T03:07:27.223Z,807.87
2018-03-21T03:08:27.221Z,807.89
2018-03-21T03:09:27.221Z,807.91
2018-03-21T03:10:27.216Z,807.93
2018-03-21T03:11:27.216Z,807.89
2018-03-21T03:12:27.213Z,807.89
2018-03-21T03:13:27.211Z,807.92
2018-03-21T03:14:27.217Z,807.93
2018-03-21T03:15:27.209Z,807.92
2018-03-21T03:16:27.207Z,807.90
2018-03-21T03:17:27.211Z,807.96
2018-03-21T03:18:27.207Z,807.97
2018-03-21T03:19:27.202Z,807.96
2018-03-21T03:20:27.199Z,807.96
2018-03-21T03:21:27.200Z,807.95
2018-03-21T03:22:27.203Z,807.93
2018-03-21T03:23:27.198Z,807.94
2018-03-21T03:24:27.194Z,807.93
2018-03-21T03:25:27.192Z,807.88
2018-03-21T03:26:27.199Z,807.90
2018-03-21T03:27:27.188Z,807.89
2018-03-21T03:28:27.190Z,807.85
2018-03-21T03:29:27.190Z,807.89
2018-03-21T03:30:27.198Z,807.89
2018-03-21T03:31:27.187Z,807.90
2018-03-21T03:32:27.181Z,807.91
2018-03-21T03:33:27.175Z,807.89
2018-03-21T03:34:27.179Z,807.90
2018-03-21T03:35:27.171Z,807.90
2018-03-21T03:36:27.175Z,807.95
2018-03-21T03:37:27.168Z,807.90
2018-03-21T03:38:27.166Z,807.91
2018-03-21T03:39:27.164Z,807.93
2018-03-21T03:40:27.170Z,807.92
2018-03-21T03:41:27.163Z,807.93
2018-03-21T03:42:27.158Z,807.95
2018-03-21T03:43:27.162Z,807.98
2018-03-21T03:44:27.160Z,807.97
2018-03-21T03:45:27.159Z,807.99
2018-03-21T03:46:27.147Z,808.01
2018-03-21T03:47:27.150Z,807.98
2018-03-21T03:48:27.149Z,807.99
2018-03-21T03:49:27.143Z,807.99
2018-03-21T03:50:27.139Z,808.00
2018-03-21T03:51:27.136Z,807.97
2018-03-21T03:52:27.143Z,807.97
2018-03-21T03:53:27.132Z,807.94
2018-03-21T03:54:27.136Z,807.96
2018-03-21T03:55:27.126Z,807.98
2018-03-21T03:56:27.124Z,808.00
2018-03-21T03:57:27.128Z,808.04
2018-03-21T03:58:27.132Z,807.98
2018-03-21T03:59:27.118Z,808.01
2018-03-21T04:00:27.121Z,807.96
2018-03-21T04:01:27.114Z,808.01
2018-03-21T04:02:27.110Z,808.00
2018-03-21T04:03:27.114Z,808.01
2018-03-21T04:04:27.112Z,807.99
2018-03-21T04:05:27.105Z,808.00
2018-03-21T04:06:27.109Z,807.99
2018-03-21T04:07:27.110Z,807.98
2018-03-21T04:08:27.106Z,808.03
2018-03-21T04:09:27.101Z,808.02
2018-03-21T04:10:27.099Z,808.03
2018-03-21T04:11:27.097Z,808.04
2018-03-21T04:12:27.089Z,808.01
2018-03-21T04:13:27.086Z,808.06
2018-03-21T04:14:27.086Z,808.03
2018-03-21T04:15:27.086Z,808.01
2018-03-21T04:16:27.080Z,808.02
2018-03-21T04:17:27.077Z,808.01
2018-03-21T04:18:27.081Z,808.00
2018-03-21T04:19:27.073Z,808.01
2018-03-21T04:20:27.080Z,808.02
2018-03-21T04:21:27.073Z,808.07
2018-03-21T04:22:27.067Z,808.04
2018-03-21T04:23:27.064Z,808.04
2018-03-21T04:24:27.069Z,808.03
2018-03-21T04:25:27.064Z,808.07
2018-03-21T04:26:27.058Z,808.05
2018-03-21T04:27:27.054Z,808.08
2018-03-21T04:28:27.051Z,808.07
2018-03-21T04:29:27.057Z,808.08
2018-03-21T04:30:27.048Z,808.08
2018-03-21T04:31:27.046Z,808.09
2018-03-21T04:32:27.042Z,808.14
2018-03-21T04:33:27.046Z,808.14
2018-03-21T04:34:27.038Z,808.13
2018-03-21T04:35:27.039Z,808.15
2018-03-21T04:36:27.041Z,808.13
2018-03-21T04:37:27.032Z,808.14
2018-03-21T04:38:27.030Z,808.17
2018-03-21T04:39:27.032Z,808.18
2018-03-21T04:40:27.025Z,808.18
2018-03-21T04:41:27.024Z,808.16
2018-03-21T04:42:27.026Z,808.17
2018-03-21T04:43:27.019Z,808.18
2018-03-21T04:44:27.021Z,808.19
2018-03-21T04:45:27.019Z,808.23
2018-03-21T04:46:27.013Z,808.17
2018-03-21T04:47:27.016Z,808.21
2018-03-21T04:48:27.017Z,808.20
2018-03-21T04:49:27.007Z,808.20
2018-03-21T04:50:27.015Z,808.25
2018-03-21T04:51:27.007Z,808.24
2018-03-21T04:52:27.004Z,808.25
2018-03-21T04:53:27.003Z,808.24
2018-03-21T04:54:26.996Z,808.30
2018-03-21T04:55:26.998Z,808.30
2018-03-21T04:56:26.991Z,808.29
2018-03-21T04:57:26.989Z,808.29
2018-03-21T04:58:26.991Z,808.29
2018-03-21T04:59:26.990Z,808.30
2018-03-21T05:00:26.982Z,808.34
2018-03-21T05:01:26.988Z,808.29
2018-03-21T05:02:26.979Z,808.32
2018-03-21T05:03:26.982Z,808.33
2018-03-21T05:04:26.973Z,808.35
2018-03-21T05:05:26.972Z,808.38
2018-03-21T05:06:26.970Z,808.39
2018-03-21T05:07:26.969Z,808.39
2018-03-21T05:08:26.976Z,808.43
2018-03-21T05:09:26.973Z,808.41
2018-03-21T05:10:26.963Z,808.42
2018-03-21T05:11:26.959Z,808.39
2018-03-21T05:12:26.966Z,808.39
2018-03-21T05:13:26.960Z,808.40
2018-03-21T05:14:26.955Z,808.43
2018-03-21T05:15:26.950Z,808.38
2018-03-21T05:16:26.947Z,808.42
2018-03-21T05:17:26.953Z,808.40
2018-03-21T05:18:26.945Z,808.37
2018-03-21T05:19:26.952Z,808.40
2018-03-21T05:20:26.941Z,808.39
2018-03-21T05:21:26.943Z,808.44
2018-03-21T05:22:26.943Z,808.47
2018-03-21T05:23:26.940Z,808.45
2018-03-21T05:24:26.938Z,808.44
2018-03-21T05:25:26.941Z,808.45
2018-03-21T05:26:26.931Z,808.47
2018-03-21T05:27:26.926Z,808.47
2018-03-21T05:28:26.926Z,808.38
2018-03-21T05:29:26.928Z,808.43
2018-03-21T05:30:26.926Z,808.44
2018-03-21T05:31:26.923Z,808.44
2018-03-21T05:32:26.923Z,808.46
2018-03-21T05:33:26.918Z,808.49
2018-03-21T05:34:26.917Z,808.49
2018-03-21T05:35:26.914Z,808.46
2018-03-21T05:36:26.913Z,808.48
2018-03-21T05:37:26.911Z,808.45
2018-03-21T05:38:26.905Z,808.45
2018-03-21T05:39:26.906Z,808.50
2018-03-21T05:40:26.905Z,808.48
2018-03-21T05:41:26.903Z,808.50
2018-03-21T05:42:26.902Z,808.50
2018-03-21T05:43:26.901Z,808.48
2018-03-21T05:44:26.891Z,808.53
2018-03-21T05:45:26.890Z,808.53
2018-03-21T05:46:26.893Z,808.56
2018-03-21T05:47:26.885Z,808.57
2018-03-21T05:48:26.884Z,808.57
2018-03-21T05:49:26.887Z,808.61
2018-03-21T05:50:26.880Z,808.61
2018-03-21T05:51:26.878Z,808.61
2018-03-21T05:52:26.876Z,808.62
2018-03-21T05:53:26.878Z,808.63
2018-03-21T05:54:26.878Z,808.62
2018-03-21T05:55:26.868Z,808.67
2018-03-21T05:56:26.868Z,808.70
2018-03-21T05:57:26.865Z,808.69
2018-03-21T05:58:26.864Z,808.73
2018-03-21T05:59:26.866Z,808.74
2018-03-21T06:00:26.864Z,808.70
2018-03-21T06:01:26.857Z,808.76
2018-03-21T06:02:26.860Z,808.78
2018-03-21T06:03:26.854Z,808.80
2018-03-21T06:04:26.851Z,808.77
2018-03-21T06:05:26.856Z,808.77
2018-03-21T06:06:26.854Z,808.75
2018-03-21T06:07:26.845Z,808.74
2018-03-21T06:08:26.888Z,808.75
2018-03-21T06:09:26.846Z,808.76
2018-03-21T06:10:26.845Z,808.73
2018-03-21T06:11:26.812Z,808.74
2018-03-21T06:12:26.809Z,808.74
2018-03-21T06:13:26.814Z,808.75
2018-03-21T06:14:26.812Z,808.75
2018-03-21T06:15:26.806Z,808.80
2018-03-21T06:16:26.801Z,808.78
2018-03-21T06:17:26.799Z,808.74
2018-03-21T06:18:26.797Z,808.81
2018-03-21T06:19:26.820Z,808.82
2018-03-21T06:20:26.823Z,808.82
2018-03-21T06:21:26.825Z,808.81
2018-03-21T06:22:26.819Z,808.82
2018-03-21T06:23:26.818Z,808.85
2018-03-21T06:24:26.810Z,808.80
2018-03-21T06:25:26.814Z,808.82
2018-03-21T06:26:26.811Z,808.85
2018-03-21T06:27:26.809Z,808.92
2018-03-21T06:28:26.807Z,808.90
2018-03-21T06:29:26.806Z,808.96
2018-03-21T06:30:26.798Z,808.92
2018-03-21T06:31:26.800Z,808.98
2018-03-21T06:32:26.856Z,808.95
2018-03-21T06:33:26.792Z,808.99
2018-03-21T06:34:26.789Z,809.00
2018-03-21T06:35:26.787Z,808.98
2018-03-21T06:36:26.786Z,809.01
2018-03-21T06:37:26.792Z,809.00
2018-03-21T06:38:26.781Z,809.00
2018-03-21T06:39:26.784Z,809.03
2018-03-21T06:40:26.782Z,809.05
2018-03-21T06:41:26.778Z,809.04
2018-03-21T06:42:26.774Z,809.03
2018-03-21T06:43:26.771Z,809.07
2018-03-21T06:44:26.777Z,809.04
2018-03-21T06:45:26.773Z,809.10
2018-03-21T06:46:26.768Z,809.09
2018-03-21T06:47:26.769Z,809.07
2018-03-21T06:48:26.768Z,809.09
2018-03-21T06:49:26.759Z,809.15
2018-03-21T06:50:26.757Z,809.14
2018-03-21T06:51:26.755Z,809.12
2018-03-21T06:52:26.757Z,809.11
2018-03-21T06:53:26.756Z,809.19
2018-03-21T06:54:26.756Z,809.14
2018-03-21T06:55:26.754Z,809.18
2018-03-21T06:56:26.746Z,809.19
2018-03-21T06:57:26.744Z,809.14
2018-03-21T06:58:26.743Z,809.19
2018-03-21T06:59:26.746Z,809.17
2018-03-21T07:00:26.745Z,809.22
2018-03-21T07:01:26.738Z,809.19
2018-03-21T07:02:26.739Z,809.23
2018-03-21T07:03:26.738Z,809.22
2018-03-21T07:04:26.732Z,809.25
2018-03-21T07:05:26.735Z,809.25
2018-03-21T07:06:26.727Z,809.23
2018-03-21T07:07:26.733Z,809.26
2018-03-21T07:08:26.729Z,809.28
2018-03-21T07:09:26.728Z,809.29
2018-03-21T07:10:26.721Z,809.30
2018-03-21T07:11:26.725Z,809.26
2018-03-21T07:12:26.720Z,809.27
2018-03-21T07:13:26.721Z,809.28
2018-03-21T07:14:26.714Z,809.30
2018-03-21T07:15:26.727Z,809.29
2018-03-21T07:16:26.717Z,809.33
2018-03-21T07:17:26.750Z,809.30
2018-03-21T07:18:26.713Z,809.32
2018-03-21T07:19:26.712Z,809.33
2018-03-21T07:20:26.704Z,809.34
2018-03-21T07:21:26.708Z,809.38
2018-03-21T07:22:26.709Z,809.43
2018-03-21T07:23:26.704Z,809.42
2018-03-21T07:24:26.698Z,809.40
2018-03-21T07:25:26.706Z,809.44
2018-03-21T07:26:26.696Z,809.49
2018-03-21T07:27:26.698Z,809.50
2018-03-21T07:28:26.698Z,809.45
2018-03-21T07:29:26.690Z,809.50
2018-03-21T07:30:26.697Z,809.54
2018-03-21T07:31:26.691Z,809.49
2018-03-21T07:32:26.690Z,809.50
2018-03-21T07:33:26.687Z,809.49
2018-03-21T07:34:26.687Z,809.48
2018-03-21T07:35:26.685Z,809.49
2018-03-21T07:36:26.678Z,809.54
2018-03-21T07:37:26.678Z,809.56
2018-03-21T07:38:26.676Z,809.56
2018-03-21T07:39:26.678Z,809.60
2018-03-21T07:40:26.670Z,809.65
2018-03-21T07:41:26.670Z,809.64
2018-03-21T07:42:26.671Z,809.68
2018-03-21T07:43:26.672Z,809.68
2018-03-21T07:44:26.665Z,809.63
2018-03-21T07:45:26.668Z,809.63
2018-03-21T07:46:26.662Z,809.68
2018-03-21T07:47:26.667Z,809.62
2018-03-21T07:48:26.664Z,809.68
2018-03-21T07:49:26.657Z,809.69
2018-03-21T07:50:26.655Z,809.73
2018-03-21T07:51:26.654Z,809.75
2018-03-21T07:52:26.657Z,809.74
2018-03-21T07:53:26.656Z,809.77
2018-03-21T07:54:26.656Z,809.81
2018-03-21T07:55:26.652Z,809.83
2018-03-21T07:56:26.645Z,809.84
2018-03-21T07:57:26.643Z,809.85
2018-03-21T07:58:26.642Z,809.85
2018-03-21T07:59:26.640Z,809.86
2018-03-21T08:00:26.640Z,809.83
2018-03-21T08:01:26.638Z,809.79
2018-03-21T08:02:26.639Z,809.83
2018-03-21T08:03:26.642Z,809.83
2018-03-21T08:04:26.633Z,809.85
2018-03-21T08:05:26.638Z,809.86
2018-03-21T08:06:26.638Z,809.85
2018-03-21T08:07:26.635Z,809.88
2018-03-21T08:08:26.634Z,809.88
2018-03-21T08:09:26.626Z,809.88
2018-03-21T08:10:26.632Z,809.86
2018-03-21T08:11:26.624Z,809.87
2018-03-21T08:12:26.622Z,809.85
2018-03-21T08:13:26.624Z,809.86
2018-03-21T08:14:26.642Z,809.85
2018-03-21T08:15:26.621Z,809.88
2018-03-21T08:16:26.622Z,809.93
2018-03-21T08:17:26.620Z,809.97
2018-03-21T08:18:26.621Z,809.98
2018-03-21T08:19:26.613Z,810.00
2018-03-21T08:20:26.618Z,810.01
2018-03-21T08:21:26.612Z,810.03
2018-03-21T08:22:26.610Z,810.07
2018-03-21T08:23:26.622Z,810.11
2018-03-21T08:24:26.612Z,810.06
2018-03-21T08:25:26.614Z,810.01
2018-03-21T08:26:26.612Z,810.05
2018-03-21T08:27:26.605Z,810.00
2018-03-21T08:28:26.605Z,810.07
2018-03-21T08:29:26.611Z,810.10
2018-03-21T08:30:26.602Z,810.02
2018-03-21T08:31:26.600Z,810.10
2018-03-21T08:32:26.600Z,810.09
2018-03-21T08:33:26.603Z,810.10
2018-03-21T08:34:26.616Z,810.13
2018-03-21T08:35:26.601Z,810.11
2018-03-21T08:36:26.600Z,810.11
2018-03-21T08:37:26.596Z,810.10
2018-03-21T08:38:26.594Z,810.16
2018-03-21T08:39:26.596Z,810.13
2018-03-21T08:40:26.596Z,810.17
2018-03-21T08:41:26.594Z,810.14
2018-03-21T08:42:26.588Z,810.15
2018-03-21T08:43:26.628Z,810.19
2018-03-21T08:44:26.588Z,810.14
2018-03-21T08:45:26.585Z,810.17
2018-03-21T08:46:26.590Z,810.16
2018-03-21T08:47:26.587Z,810.15
2018-03-21T08:48:26.581Z,810.17
2018-03-21T08:49:26.581Z,810.19
2018-03-21T08:50:26.579Z,810.19
2018-03-21T08:51:26.577Z,810.18
2018-03-21T08:52:26.590Z,810.18
2018-03-21T08:53:26.582Z,810.20
2018-03-21T08:54:26.582Z,810.22
2018-03-21T08:55:26.581Z,810.22
2018-03-21T08:56:26.585Z,810.22
2018-03-21T08:57:26.576Z,810.17
2018-03-21T08:58:26.574Z,810.19
2018-03-21T08:59:26.574Z,810.19
2018-03-21T09:00:26.572Z,810.13
2018-03-21T09:01:26.606Z,810.20
2018-03-21T09:02:26.576Z,810.17
2018-03-21T09:03:26.570Z,810.19
2018-03-21T09:04:26.569Z,810.20
2018-03-21T09:05:26.580Z,810.24
2018-03-21T09:06:26.568Z,810.21
2018-03-21T09:07:26.612Z,810.25
2018-03-21T09:08:26.573Z,810.24
2018-03-21T09:09:26.569Z,810.19
2018-03-21T09:10:26.566Z,810.19
2018-03-21T09:11:26.571Z,810.21
2018-03-21T09:12:26.568Z,810.19
2018-03-21T09:13:26.566Z,810.22
2018-03-21T09:14:26.570Z,810.22
2018-03-21T09:15:26.563Z,810.17
2018-03-21T09:16:26.575Z,810.17
2018-03-21T09:17:26.564Z,810.20
2018-03-21T09:18:26.564Z,810.23
2018-03-21T09:19:26.566Z,810.23
2018-03-21T09:20:26.567Z,810.21
2018-03-21T09:21:26.572Z,810.24
2018-03-21T09:22:26.568Z,810.19
2018-03-21T09:23:26.560Z,810.22
2018-03-21T09:24:26.568Z,810.20
2018-03-21T09:25:26.561Z,810.24
2018-03-21T09:26:26.565Z,810.25
2018-03-21T09:27:26.580Z,810.24
2018-03-21T09:28:26.567Z,810.27
2018-03-21T09:29:26.559Z,810.28
2018-03-21T09:30:26.565Z,810.31
2018-03-21T09:31:26.560Z,810.32
2018-03-21T09:32:26.568Z,810.23
2018-03-21T09:33:26.565Z,810.28
2018-03-21T09:34:26.570Z,810.31
2018-03-21T09:35:26.564Z,810.31
2018-03-21T09:36:26.559Z,810.32
2018-03-21T09:37:26.612Z,810.31
2018-03-21T09:38:26.567Z,810.29
2018-03-21T09:39:26.561Z,810.33
2018-03-21T09:40:26.633Z,810.25
2018-03-21T09:41:26.567Z,810.26
2018-03-21T09:42:26.561Z,810.25
2018-03-21T09:43:26.561Z,810.28
2018-03-21T09:44:26.562Z,810.18
2018-03-21T09:45:26.569Z,810.23
2018-03-21T09:46:26.564Z,810.26
2018-03-21T09:47:26.568Z,810.27
2018-03-21T09:48:26.565Z,810.31
2018-03-21T09:49:26.564Z,810.26
2018-03-21T09:50:26.573Z,810.25
2018-03-21T09:51:26.566Z,810.22
2018-03-21T09:52:26.582Z,810.24
2018-03-21T09:53:26.569Z,810.23
2018-03-21T09:54:26.574Z,810.21
2018-03-21T09:55:26.575Z,810.20
2018-03-21T09:56:26.575Z,810.21
2018-03-21T09:57:26.572Z,810.24
2018-03-21T09:58:26.574Z,810.23
2018-03-21T09:59:26.581Z,810.24
2018-03-21T10:00:26.582Z,810.26
2018-03-21T10:01:26.582Z,810.22
2018-03-21T10:02:26.581Z,810.28
2018-03-21T10:03:26.579Z,810.23
2018-03-21T10:04:26.580Z,810.23
2018-03-21T10:05:26.583Z,810.23
2018-03-21T10:06:26.588Z,810.25
2018-03-21T10:07:26.597Z,810.27
2018-03-21T10:08:26.598Z,810.28
2018-03-21T10:09:26.588Z,810.31
2018-03-21T10:10:26.599Z,810.30
2018-03-21T10:11:26.606Z,810.28
2018-03-21T10:12:26.595Z,810.28
2018-03-21T10:13:26.595Z,810.31
2018-03-21T10:14:26.603Z,810.30
2018-03-21T10:15:26.603Z,810.30
2018-03-21T10:16:26.607Z,810.31
2018-03-21T10:17:26.609Z,810.29
2018-03-21T10:18:26.612Z,810.30
2018-03-21T10:19:26.614Z,810.31
2018-03-21T10:20:26.615Z,810.31
2018-03-21T10:21:26.612Z,810.34
2018-03-21T10:22:26.620Z,810.33
2018-03-21T10:23:26.616Z,810.32
2018-03-21T10:24:26.618Z,810.40
2018-03-21T10:25:26.626Z,810.36
2018-03-21T10:26:26.630Z,810.35
2018-03-21T10:27:26.625Z,810.36
2018-03-21T10:28:26.633Z,810.35
2018-03-21T10:29:26.631Z,810.39
2018-03-21T10:30:26.637Z,810.42
2018-03-21T10:31:26.635Z,810.42
2018-03-21T10:32:26.649Z,810.36
2018-03-21T10:33:26.642Z,810.33
2018-03-21T10:34:26.644Z,810.35
2018-03-21T10:35:26.652Z,810.41
2018-03-21T10:36:26.650Z,810.38
2018-03-21T10:37:26.658Z,810.41
2018-03-21T10:38:26.660Z,810.42
2018-03-21T10:39:26.665Z,810.38
2018-03-21T10:40:26.663Z,810.38
2018-03-21T10:41:26.671Z,810.40
2018-03-21T10:42:26.668Z,810.45
2018-03-21T10:43:26.675Z,810.42
2018-03-21T10:44:26.680Z,810.46
2018-03-21T10:45:26.685Z,810.49
2018-03-21T10:46:26.686Z,810.45
2018-03-21T10:47:26.687Z,810.47
2018-03-21T10:48:26.690Z,810.43
2018-03-21T10:49:26.688Z,810.47
2018-03-21T10:50:26.692Z,810.48
2018-03-21T10:51:26.700Z,810.45
2018-03-21T10:52:38.776Z,810.44
2018-03-21T10:53:26.781Z,810.45
2018-03-21T10:54:26.709Z,810.50
2018-03-21T10:55:26.707Z,810.51
2018-03-21T10:56:26.717Z,810.52
2018-03-21T10:57:26.722Z,810.50
2018-03-21T10:58:26.717Z,810.54
2018-03-21T10:59:26.720Z,810.53
2018-03-21T11:00:26.730Z,810.53
2018-03-21T11:01:26.728Z,810.50
2018-03-21T11:02:26.732Z,810.59
2018-03-21T11:03:26.740Z,810.54
2018-03-21T11:04:26.742Z,810.58
2018-03-21T11:05:26.743Z,810.52
2018-03-21T11:06:26.755Z,810.56
2018-03-21T11:07:26.749Z,810.56
2018-03-21T11:08:26.759Z,810.58
2018-03-21T11:09:26.763Z,810.51
2018-03-21T11:10:26.763Z,810.64
2018-03-21T11:11:26.771Z,810.56
2018-03-21T11:12:26.777Z,810.50
2018-03-21T11:13:26.783Z,810.47
2018-03-21T11:14:26.779Z,810.56
2018-03-21T11:15:26.794Z,810.56
2018-03-21T11:16:26.795Z,810.53
2018-03-21T11:17:26.800Z,810.62
2018-03-21T11:18:26.802Z,810.56
2018-03-21T11:19:26.805Z,810.49
2018-03-21T11:20:26.807Z,810.52
2018-03-21T11:21:26.812Z,810.63
2018-03-21T11:22:26.819Z,810.55
2018-03-21T11:23:26.823Z,810.56
2018-03-21T11:24:26.821Z,810.57
2018-03-21T11:25:26.833Z,810.59
2018-03-21T11:26:26.837Z,810.61
2018-03-21T11:27:26.870Z,810.64
2018-03-21T11:28:26.871Z,810.66
2018-03-21T11:29:26.885Z,810.65
2018-03-21T11:30:26.905Z,810.65
2018-03-21T11:31:26.909Z,810.60
2018-03-21T11:32:26.918Z,810.58
2018-03-21T11:33:26.933Z,810.60
2018-03-21T11:34:26.946Z,810.66
2018-03-21T11:35:26.958Z,810.66
2018-03-21T11:36:26.995Z,810.70
2018-03-21T11:37:26.975Z,810.70
2018-03-21T11:38:26.986Z,810.69
2018-03-21T11:39:26.984Z,810.64
2018-03-21T11:40:26.991Z,810.65
2018-03-21T11:41:27.004Z,810.76
2018-03-21T11:42:27.001Z,810.77
2018-03-21T11:43:26.936Z,810.76
2018-03-21T11:44:26.927Z,810.72
2018-03-21T11:45:26.921Z,810.70
2018-03-21T11:46:26.930Z,810.67
2018-03-21T11:47:26.936Z,810.71
2018-03-21T11:48:26.943Z,810.69
2018-03-21T11:49:26.947Z,810.72
2018-03-21T11:50:26.951Z,810.66
2018-03-21T11:51:26.951Z,810.73
2018-03-21T11:52:26.963Z,810.71
2018-03-21T11:53:26.983Z,810.73
2018-03-21T11:54:26.974Z,810.85
2018-03-21T11:55:26.979Z,810.73
2018-03-21T11:56:27.044Z,810.73
2018-03-21T11:57:26.993Z,810.67
2018-03-21T11:58:26.996Z,810.68
2018-03-21T11:59:26.999Z,810.68
2018-03-21T12:00:27.000Z,810.76
2018-03-21T12:01:27.008Z,810.76
2018-03-21T12:02:27.024Z,810.74
2018-03-21T12:03:27.021Z,810.72
2018-03-21T12:04:27.022Z,810.74
2018-03-21T12:05:27.026Z,810.69
2018-03-21T12:06:27.037Z,810.74
2018-03-21T12:07:27.037Z,810.69
2018-03-21T12:08:27.045Z,810.80
2018-03-21T12:09:27.049Z,810.81
2018-03-21T12:10:27.060Z,810.79
2018-03-21T12:11:27.059Z,810.79
2018-03-21T12:12:27.069Z,810.74
2018-03-21T12:13:27.071Z,810.72
2018-03-21T12:14:27.074Z,810.71
2018-03-21T12:15:27.084Z,810.71
2018-03-21T12:16:27.084Z,810.70
2018-03-21T12:17:27.095Z,810.73
2018-03-21T12:18:27.099Z,810.69
2018-03-21T12:19:27.106Z,810.74
2018-03-21T12:20:27.114Z,810.80
2018-03-21T12:21:27.115Z,810.77
2018-03-21T12:22:27.115Z,810.72
2018-03-21T12:23:27.126Z,810.73
2018-03-21T12:24:27.134Z,810.72
2018-03-21T12:25:27.139Z,810.70
2018-03-21T12:26:27.138Z,810.69
2018-03-21T12:27:27.148Z,810.77
2018-03-21T12:28:27.150Z,810.74